sensor_id;sensor_type;location;lat;lon;timestamp;P1;durP1;ratioP1;P2;durP2;ratioP2
40997;SDS011;26740;45.944;12.480;2023-09-30T00:01:08;1.52;;;1.17;;
40997;SDS011;26740;45.944;12.480;2023-09-30T00:03:33;3.15;;;1.45;;
40997;SDS011;26740;45.944;12.480;2023-09-30T00:05:59;2.63;;;1.80;;
40997;SDS011;26740;45.944;12.480;2023-09-30T00:08:24;5.80;;;1.88;;
40997;SDS011;26740;45.944;12.480;2023-09-30T00:10:50;2.47;;;1.20;;
40997;SDS011;26740;45.944;12.480;2023-09-30T00:13:15;2.15;;;1.55;;
40997;SDS011;26740;45.944;12.480;2023-09-30T00:15:41;3.38;;;1.60;;
40997;SDS011;26740;45.944;12.480;2023-09-30T00:18:06;1.65;;;1.25;;
40997;SDS011;26740;45.944;12.480;2023-09-30T00:20:32;5.13;;;1.60;;
40997;SDS011;26740;45.944;12.480;2023-09-30T00:22:57;3.17;;;1.83;;
40997;SDS011;26740;45.944;12.480;2023-09-30T00:25:23;4.65;;;1.83;;
40997;SDS011;26740;45.944;12.480;2023-09-30T00:27:48;5.32;;;1.90;;
40997;SDS011;26740;45.944;12.480;2023-09-30T00:30:14;3.20;;;2.17;;
40997;SDS011;26740;45.944;12.480;2023-09-30T00:32:39;3.20;;;1.55;;
40997;SDS011;26740;45.944;12.480;2023-09-30T00:35:05;1.70;;;1.40;;
40997;SDS011;26740;45.944;12.480;2023-09-30T00:37:39;2.75;;;1.55;;
40997;SDS011;26740;45.944;12.480;2023-09-30T00:40:05;3.30;;;1.30;;
40997;SDS011;26740;45.944;12.480;2023-09-30T00:42:30;5.05;;;2.20;;
40997;SDS011;26740;45.944;12.480;2023-09-30T00:44:56;3.08;;;1.80;;
40997;SDS011;26740;45.944;12.480;2023-09-30T00:47:22;1.75;;;1.25;;
40997;SDS011;26740;45.944;12.480;2023-09-30T00:49:48;2.20;;;1.55;;
40997;SDS011;26740;45.944;12.480;2023-09-30T00:52:14;5.10;;;1.75;;
40997;SDS011;26740;45.944;12.480;2023-09-30T00:54:39;2.70;;;1.65;;
40997;SDS011;26740;45.944;12.480;2023-09-30T00:57:05;4.18;;;1.55;;
40997;SDS011;26740;45.944;12.480;2023-09-30T00:59:31;3.47;;;1.17;;
40997;SDS011;26740;45.944;12.480;2023-09-30T01:01:58;1.77;;;1.25;;
40997;SDS011;26740;45.944;12.480;2023-09-30T01:04:24;5.30;;;1.88;;
40997;SDS011;26740;45.944;12.480;2023-09-30T01:06:51;2.13;;;1.92;;
40997;SDS011;26740;45.944;12.480;2023-09-30T01:09:16;2.38;;;1.48;;
40997;SDS011;26740;45.944;12.480;2023-09-30T01:11:42;1.25;;;1.15;;
40997;SDS011;26740;45.944;12.480;2023-09-30T01:14:29;1.85;;;1.20;;
40997;SDS011;26740;45.944;12.480;2023-09-30T01:16:53;1.30;;;1.20;;
40997;SDS011;26740;45.944;12.480;2023-09-30T01:19:18;3.85;;;1.42;;
40997;SDS011;26740;45.944;12.480;2023-09-30T01:21:44;1.90;;;1.30;;
40997;SDS011;26740;45.944;12.480;2023-09-30T01:24:19;1.30;;;1.20;;
40997;SDS011;26740;45.944;12.480;2023-09-30T01:26:45;3.30;;;1.42;;
40997;SDS011;26740;45.944;12.480;2023-09-30T01:29:10;3.45;;;1.20;;
40997;SDS011;26740;45.944;12.480;2023-09-30T01:31:38;1.92;;;1.45;;
40997;SDS011;26740;45.944;12.480;2023-09-30T01:34:04;1.15;;;1.00;;
40997;SDS011;26740;45.944;12.480;2023-09-30T01:36:30;2.78;;;1.35;;
40997;SDS011;26740;45.944;12.480;2023-09-30T01:38:55;3.63;;;1.25;;
40997;SDS011;26740;45.944;12.480;2023-09-30T01:41:21;3.65;;;1.45;;
40997;SDS011;26740;45.944;12.480;2023-09-30T01:43:47;2.05;;;1.30;;
40997;SDS011;26740;45.944;12.480;2023-09-30T01:46:13;2.78;;;1.50;;
40997;SDS011;26740;45.944;12.480;2023-09-30T01:48:39;3.75;;;1.48;;
40997;SDS011;26740;45.944;12.480;2023-09-30T01:51:04;2.95;;;1.35;;
40997;SDS011;26740;45.944;12.480;2023-09-30T01:55:55;2.00;;;1.70;;
40997;SDS011;26740;45.944;12.480;2023-09-30T01:58:20;3.83;;;1.40;;
40997;SDS011;26740;45.944;12.480;2023-09-30T02:00:45;3.25;;;1.90;;
40997;SDS011;26740;45.944;12.480;2023-09-30T02:03:11;4.35;;;1.58;;
40997;SDS011;26740;45.944;12.480;2023-09-30T02:05:37;1.88;;;1.52;;
40997;SDS011;26740;45.944;12.480;2023-09-30T02:08:03;2.88;;;1.40;;
40997;SDS011;26740;45.944;12.480;2023-09-30T02:10:31;1.35;;;1.25;;
40997;SDS011;26740;45.944;12.480;2023-09-30T02:12:56;3.55;;;1.27;;
40997;SDS011;26740;45.944;12.480;2023-09-30T02:15:21;2.08;;;1.42;;
40997;SDS011;26740;45.944;12.480;2023-09-30T02:17:47;3.58;;;1.67;;
40997;SDS011;26740;45.944;12.480;2023-09-30T02:20:14;2.90;;;1.75;;
40997;SDS011;26740;45.944;12.480;2023-09-30T02:22:41;1.52;;;1.40;;
40997;SDS011;26740;45.944;12.480;2023-09-30T02:25:06;2.85;;;1.42;;
40997;SDS011;26740;45.944;12.480;2023-09-30T02:27:32;3.15;;;1.45;;
40997;SDS011;26740;45.944;12.480;2023-09-30T02:29:58;2.65;;;1.60;;
40997;SDS011;26740;45.944;12.480;2023-09-30T02:32:24;2.38;;;1.70;;
40997;SDS011;26740;45.944;12.480;2023-09-30T02:34:49;2.17;;;1.25;;
40997;SDS011;26740;45.944;12.480;2023-09-30T02:37:15;2.30;;;1.40;;
40997;SDS011;26740;45.944;12.480;2023-09-30T02:39:42;3.70;;;1.60;;
40997;SDS011;26740;45.944;12.480;2023-09-30T02:42:08;3.28;;;1.50;;
40997;SDS011;26740;45.944;12.480;2023-09-30T02:44:33;1.23;;;1.10;;
40997;SDS011;26740;45.944;12.480;2023-09-30T02:46:59;3.67;;;1.77;;
40997;SDS011;26740;45.944;12.480;2023-09-30T02:49:24;2.28;;;1.65;;
40997;SDS011;26740;45.944;12.480;2023-09-30T02:51:49;2.83;;;1.92;;
40997;SDS011;26740;45.944;12.480;2023-09-30T02:54:16;3.63;;;1.38;;
40997;SDS011;26740;45.944;12.480;2023-09-30T02:56:41;2.28;;;1.25;;
40997;SDS011;26740;45.944;12.480;2023-09-30T02:59:07;1.70;;;1.58;;
40997;SDS011;26740;45.944;12.480;2023-09-30T03:01:32;1.92;;;1.55;;
40997;SDS011;26740;45.944;12.480;2023-09-30T03:03:58;2.30;;;1.63;;
40997;SDS011;26740;45.944;12.480;2023-09-30T03:06:23;4.53;;;1.52;;
40997;SDS011;26740;45.944;12.480;2023-09-30T03:08:49;2.50;;;1.30;;
40997;SDS011;26740;45.944;12.480;2023-09-30T03:11:14;3.28;;;1.42;;
40997;SDS011;26740;45.944;12.480;2023-09-30T03:13:39;1.98;;;1.10;;
40997;SDS011;26740;45.944;12.480;2023-09-30T03:16:07;2.00;;;1.50;;
40997;SDS011;26740;45.944;12.480;2023-09-30T03:18:33;2.15;;;1.35;;
40997;SDS011;26740;45.944;12.480;2023-09-30T03:20:59;1.58;;;1.48;;
40997;SDS011;26740;45.944;12.480;2023-09-30T03:23:28;3.28;;;1.73;;
40997;SDS011;26740;45.944;12.480;2023-09-30T03:25:58;1.73;;;1.15;;
40997;SDS011;26740;45.944;12.480;2023-09-30T03:28:24;2.03;;;1.45;;
40997;SDS011;26740;45.944;12.480;2023-09-30T03:30:50;2.30;;;1.40;;
40997;SDS011;26740;45.944;12.480;2023-09-30T03:33:15;2.80;;;1.52;;
40997;SDS011;26740;45.944;12.480;2023-09-30T03:35:40;5.18;;;1.50;;
40997;SDS011;26740;45.944;12.480;2023-09-30T03:38:07;2.35;;;1.45;;
40997;SDS011;26740;45.944;12.480;2023-09-30T03:40:34;2.80;;;1.42;;
40997;SDS011;26740;45.944;12.480;2023-09-30T03:43:03;1.95;;;1.52;;
40997;SDS011;26740;45.944;12.480;2023-09-30T03:45:30;1.70;;;1.33;;
40997;SDS011;26740;45.944;12.480;2023-09-30T03:47:57;2.25;;;1.40;;
40997;SDS011;26740;45.944;12.480;2023-09-30T03:50:23;1.63;;;1.10;;
40997;SDS011;26740;45.944;12.480;2023-09-30T03:52:49;1.77;;;1.45;;
40997;SDS011;26740;45.944;12.480;2023-09-30T03:55:15;1.83;;;1.50;;
40997;SDS011;26740;45.944;12.480;2023-09-30T03:57:40;1.52;;;1.42;;
40997;SDS011;26740;45.944;12.480;2023-09-30T04:00:06;2.55;;;1.33;;
40997;SDS011;26740;45.944;12.480;2023-09-30T04:02:32;2.03;;;1.42;;
40997;SDS011;26740;45.944;12.480;2023-09-30T04:04:57;2.50;;;1.30;;
40997;SDS011;26740;45.944;12.480;2023-09-30T04:07:24;3.08;;;1.42;;
40997;SDS011;26740;45.944;12.480;2023-09-30T04:09:53;2.58;;;1.55;;
40997;SDS011;26740;45.944;12.480;2023-09-30T04:12:19;2.08;;;1.48;;
40997;SDS011;26740;45.944;12.480;2023-09-30T04:14:44;1.85;;;1.52;;
40997;SDS011;26740;45.944;12.480;2023-09-30T04:17:10;2.25;;;1.38;;
40997;SDS011;26740;45.944;12.480;2023-09-30T04:19:35;3.17;;;1.50;;
40997;SDS011;26740;45.944;12.480;2023-09-30T04:22:00;1.65;;;1.42;;
40997;SDS011;26740;45.944;12.480;2023-09-30T04:24:26;3.78;;;1.40;;
40997;SDS011;26740;45.944;12.480;2023-09-30T04:26:53;1.80;;;1.20;;
40997;SDS011;26740;45.944;12.480;2023-09-30T04:29:22;2.05;;;1.58;;
40997;SDS011;26740;45.944;12.480;2023-09-30T04:31:48;5.50;;;1.25;;
40997;SDS011;26740;45.944;12.480;2023-09-30T04:34:14;1.55;;;1.27;;
40997;SDS011;26740;45.944;12.480;2023-09-30T04:36:40;3.25;;;1.40;;
40997;SDS011;26740;45.944;12.480;2023-09-30T04:39:06;2.65;;;1.17;;
40997;SDS011;26740;45.944;12.480;2023-09-30T04:41:32;1.83;;;1.40;;
40997;SDS011;26740;45.944;12.480;2023-09-30T04:43:57;1.42;;;1.27;;
40997;SDS011;26740;45.944;12.480;2023-09-30T04:46:23;2.17;;;1.40;;
40997;SDS011;26740;45.944;12.480;2023-09-30T04:48:49;2.33;;;1.52;;
40997;SDS011;26740;45.944;12.480;2023-09-30T04:51:17;7.15;;;1.77;;
40997;SDS011;26740;45.944;12.480;2023-09-30T04:53:43;2.58;;;1.42;;
40997;SDS011;26740;45.944;12.480;2023-09-30T04:56:11;1.60;;;1.50;;
40997;SDS011;26740;45.944;12.480;2023-09-30T04:58:37;1.58;;;1.17;;
40997;SDS011;26740;45.944;12.480;2023-09-30T05:01:02;2.20;;;1.27;;
40997;SDS011;26740;45.944;12.480;2023-09-30T05:03:28;1.55;;;1.45;;
40997;SDS011;26740;45.944;12.480;2023-09-30T05:05:53;4.20;;;1.38;;
40997;SDS011;26740;45.944;12.480;2023-09-30T05:08:23;2.40;;;1.48;;
40997;SDS011;26740;45.944;12.480;2023-09-30T05:10:49;2.05;;;1.65;;
40997;SDS011;26740;45.944;12.480;2023-09-30T05:13:14;2.85;;;1.30;;
40997;SDS011;26740;45.944;12.480;2023-09-30T05:15:40;2.72;;;1.30;;
40997;SDS011;26740;45.944;12.480;2023-09-30T05:18:06;1.42;;;1.33;;
40997;SDS011;26740;45.944;12.480;2023-09-30T05:20:33;1.33;;;1.23;;
40997;SDS011;26740;45.944;12.480;2023-09-30T05:23:01;1.58;;;1.48;;
40997;SDS011;26740;45.944;12.480;2023-09-30T05:25:27;3.75;;;1.33;;
40997;SDS011;26740;45.944;12.480;2023-09-30T05:27:53;1.88;;;1.33;;
40997;SDS011;26740;45.944;12.480;2023-09-30T05:30:19;1.10;;;1.00;;
40997;SDS011;26740;45.944;12.480;2023-09-30T05:32:45;2.55;;;1.08;;
40997;SDS011;26740;45.944;12.480;2023-09-30T05:35:12;1.63;;;1.33;;
40997;SDS011;26740;45.944;12.480;2023-09-30T05:37:41;1.40;;;1.23;;
40997;SDS011;26740;45.944;12.480;2023-09-30T05:40:07;4.18;;;1.65;;
40997;SDS011;26740;45.944;12.480;2023-09-30T05:42:42;2.40;;;1.00;;
40997;SDS011;26740;45.944;12.480;2023-09-30T05:45:08;1.58;;;0.95;;
40997;SDS011;26740;45.944;12.480;2023-09-30T05:47:34;2.33;;;1.00;;
40997;SDS011;26740;45.944;12.480;2023-09-30T05:50:00;2.05;;;1.20;;
40997;SDS011;26740;45.944;12.480;2023-09-30T05:52:25;2.15;;;1.30;;
40997;SDS011;26740;45.944;12.480;2023-09-30T05:54:50;1.80;;;1.08;;
40997;SDS011;26740;45.944;12.480;2023-09-30T05:57:16;1.75;;;1.35;;
40997;SDS011;26740;45.944;12.480;2023-09-30T05:59:41;1.80;;;1.67;;
40997;SDS011;26740;45.944;12.480;2023-09-30T06:02:06;1.52;;;1.25;;
40997;SDS011;26740;45.944;12.480;2023-09-30T06:04:32;1.75;;;1.08;;
40997;SDS011;26740;45.944;12.480;2023-09-30T06:07:00;5.13;;;1.42;;
40997;SDS011;26740;45.944;12.480;2023-09-30T06:09:25;2.65;;;1.65;;
40997;SDS011;26740;45.944;12.480;2023-09-30T06:11:54;2.90;;;1.30;;
40997;SDS011;26740;45.944;12.480;2023-09-30T06:14:19;2.38;;;1.40;;
40997;SDS011;26740;45.944;12.480;2023-09-30T06:16:45;2.83;;;1.08;;
40997;SDS011;26740;45.944;12.480;2023-09-30T06:19:11;3.47;;;1.40;;
40997;SDS011;26740;45.944;12.480;2023-09-30T06:21:36;3.25;;;1.45;;
40997;SDS011;26740;45.944;12.480;2023-09-30T06:24:01;2.15;;;1.15;;
40997;SDS011;26740;45.944;12.480;2023-09-30T06:26:27;9.82;;;5.47;;
40997;SDS011;26740;45.944;12.480;2023-09-30T06:28:54;6.35;;;5.78;;
40997;SDS011;26740;45.944;12.480;2023-09-30T06:31:21;5.57;;;5.05;;
40997;SDS011;26740;45.944;12.480;2023-09-30T06:33:46;6.30;;;4.18;;
40997;SDS011;26740;45.944;12.480;2023-09-30T06:36:12;3.83;;;1.77;;
40997;SDS011;26740;45.944;12.480;2023-09-30T06:38:40;3.65;;;2.45;;
40997;SDS011;26740;45.944;12.480;2023-09-30T06:41:09;2.63;;;1.50;;
40997;SDS011;26740;45.944;12.480;2023-09-30T06:43:34;0.85;;;0.82;;
40997;SDS011;26740;45.944;12.480;2023-09-30T06:46:06;5.57;;;1.25;;
40997;SDS011;26740;45.944;12.480;2023-09-30T06:48:34;3.35;;;1.15;;
40997;SDS011;26740;45.944;12.480;2023-09-30T06:51:00;5.93;;;1.30;;
40997;SDS011;26740;45.944;12.480;2023-09-30T06:53:25;2.90;;;1.30;;
40997;SDS011;26740;45.944;12.480;2023-09-30T06:55:51;3.45;;;1.73;;
40997;SDS011;26740;45.944;12.480;2023-09-30T06:58:19;2.53;;;1.40;;
40997;SDS011;26740;45.944;12.480;2023-09-30T07:00:49;2.13;;;1.50;;
40997;SDS011;26740;45.944;12.480;2023-09-30T07:03:15;2.28;;;1.40;;
40997;SDS011;26740;45.944;12.480;2023-09-30T07:05:40;3.17;;;1.40;;
40997;SDS011;26740;45.944;12.480;2023-09-30T07:08:06;1.70;;;1.60;;
40997;SDS011;26740;45.944;12.480;2023-09-30T07:10:31;2.08;;;1.90;;
40997;SDS011;26740;45.944;12.480;2023-09-30T07:12:57;1.60;;;1.10;;
40997;SDS011;26740;45.944;12.480;2023-09-30T07:15:22;2.42;;;1.50;;
40997;SDS011;26740;45.944;12.480;2023-09-30T07:17:48;2.55;;;1.88;;
40997;SDS011;26740;45.944;12.480;2023-09-30T07:20:13;2.72;;;1.67;;
40997;SDS011;26740;45.944;12.480;2023-09-30T07:22:39;2.05;;;1.63;;
40997;SDS011;26740;45.944;12.480;2023-09-30T07:25:04;1.92;;;1.70;;
40997;SDS011;26740;45.944;12.480;2023-09-30T07:27:30;1.95;;;1.48;;
40997;SDS011;26740;45.944;12.480;2023-09-30T07:29:55;1.70;;;1.60;;
40997;SDS011;26740;45.944;12.480;2023-09-30T07:32:21;2.72;;;1.85;;
40997;SDS011;26740;45.944;12.480;2023-09-30T07:34:48;2.88;;;1.20;;
40997;SDS011;26740;45.944;12.480;2023-09-30T07:37:14;1.40;;;1.25;;
40997;SDS011;26740;45.944;12.480;2023-09-30T07:39:39;4.80;;;1.35;;
40997;SDS011;26740;45.944;12.480;2023-09-30T07:42:04;1.35;;;1.25;;
40997;SDS011;26740;45.944;12.480;2023-09-30T07:44:30;3.43;;;1.73;;
40997;SDS011;26740;45.944;12.480;2023-09-30T07:46:55;3.33;;;1.10;;
40997;SDS011;26740;45.944;12.480;2023-09-30T07:49:20;2.03;;;1.48;;
40997;SDS011;26740;45.944;12.480;2023-09-30T07:51:46;1.52;;;1.00;;
40997;SDS011;26740;45.944;12.480;2023-09-30T07:54:11;3.05;;;1.27;;
40997;SDS011;26740;45.944;12.480;2023-09-30T07:56:37;3.80;;;1.23;;
40997;SDS011;26740;45.944;12.480;2023-09-30T07:59:02;1.13;;;0.80;;
40997;SDS011;26740;45.944;12.480;2023-09-30T08:01:28;4.18;;;1.30;;
40997;SDS011;26740;45.944;12.480;2023-09-30T08:03:55;2.25;;;0.85;;
40997;SDS011;26740;45.944;12.480;2023-09-30T08:06:21;3.80;;;1.08;;
40997;SDS011;26740;45.944;12.480;2023-09-30T08:08:46;0.95;;;0.80;;
40997;SDS011;26740;45.944;12.480;2023-09-30T08:11:12;1.85;;;0.85;;
40997;SDS011;26740;45.944;12.480;2023-09-30T08:13:37;4.63;;;1.10;;
40997;SDS011;26740;45.944;12.480;2023-09-30T08:16:03;1.55;;;1.13;;
40997;SDS011;26740;45.944;12.480;2023-09-30T08:18:28;1.92;;;0.98;;
40997;SDS011;26740;45.944;12.480;2023-09-30T08:20:54;1.20;;;1.10;;
40997;SDS011;26740;45.944;12.480;2023-09-30T08:23:19;1.70;;;1.45;;
40997;SDS011;26740;45.944;12.480;2023-09-30T08:25:46;8.05;;;1.33;;
40997;SDS011;26740;45.944;12.480;2023-09-30T08:28:11;1.48;;;1.08;;
40997;SDS011;26740;45.944;12.480;2023-09-30T08:30:37;2.15;;;1.00;;
40997;SDS011;26740;45.944;12.480;2023-09-30T08:33:03;3.22;;;0.95;;
40997;SDS011;26740;45.944;12.480;2023-09-30T08:35:29;1.10;;;0.60;;
40997;SDS011;26740;45.944;12.480;2023-09-30T08:37:55;0.70;;;0.60;;
40997;SDS011;26740;45.944;12.480;2023-09-30T08:40:21;3.70;;;0.60;;
40997;SDS011;26740;45.944;12.480;2023-09-30T08:42:48;2.42;;;0.60;;
40997;SDS011;26740;45.944;12.480;2023-09-30T08:47:41;1.33;;;0.80;;
40997;SDS011;26740;45.944;12.480;2023-09-30T08:50:07;1.38;;;0.70;;
40997;SDS011;26740;45.944;12.480;2023-09-30T08:52:33;0.90;;;0.60;;
40997;SDS011;26740;45.944;12.480;2023-09-30T08:54:59;6.05;;;0.50;;
40997;SDS011;26740;45.944;12.480;2023-09-30T08:57:25;2.55;;;0.60;;
40997;SDS011;26740;45.944;12.480;2023-09-30T08:59:51;1.20;;;0.70;;
40997;SDS011;26740;45.944;12.480;2023-09-30T09:02:17;2.08;;;0.93;;
40997;SDS011;26740;45.944;12.480;2023-09-30T09:04:43;1.33;;;0.60;;
40997;SDS011;26740;45.944;12.480;2023-09-30T09:07:09;0.98;;;0.60;;
40997;SDS011;26740;45.944;12.480;2023-09-30T09:09:34;2.53;;;0.70;;
40997;SDS011;26740;45.944;12.480;2023-09-30T09:12:00;1.10;;;0.68;;
40997;SDS011;26740;45.944;12.480;2023-09-30T09:14:38;3.05;;;0.60;;
40997;SDS011;26740;45.944;12.480;2023-09-30T09:17:06;1.15;;;0.68;;
40997;SDS011;26740;45.944;12.480;2023-09-30T09:19:33;1.00;;;0.57;;
40997;SDS011;26740;45.944;12.480;2023-09-30T09:21:59;1.92;;;0.80;;
40997;SDS011;26740;45.944;12.480;2023-09-30T09:24:31;0.98;;;0.73;;
40997;SDS011;26740;45.944;12.480;2023-09-30T09:27:04;1.42;;;0.70;;
40997;SDS011;26740;45.944;12.480;2023-09-30T09:29:30;0.82;;;0.55;;
40997;SDS011;26740;45.944;12.480;2023-09-30T09:34:34;3.03;;;0.90;;
40997;SDS011;26740;45.944;12.480;2023-09-30T09:36:59;0.93;;;0.68;;
40997;SDS011;26740;45.944;12.480;2023-09-30T09:39:30;3.20;;;1.20;;
40997;SDS011;26740;45.944;12.480;2023-09-30T09:41:59;0.88;;;0.77;;
40997;SDS011;26740;45.944;12.480;2023-09-30T09:44:26;0.70;;;0.60;;
40997;SDS011;26740;45.944;12.480;2023-09-30T09:46:52;3.80;;;0.85;;
40997;SDS011;26740;45.944;12.480;2023-09-30T09:49:18;2.45;;;0.60;;
40997;SDS011;26740;45.944;12.480;2023-09-30T09:51:43;3.00;;;0.80;;
40997;SDS011;26740;45.944;12.480;2023-09-30T09:54:11;1.67;;;0.70;;
40997;SDS011;26740;45.944;12.480;2023-09-30T09:56:36;2.05;;;0.90;;
40997;SDS011;26740;45.944;12.480;2023-09-30T09:59:03;1.92;;;0.70;;
40997;SDS011;26740;45.944;12.480;2023-09-30T10:01:30;2.10;;;0.88;;
40997;SDS011;26740;45.944;12.480;2023-09-30T10:03:55;1.65;;;0.90;;
40997;SDS011;26740;45.944;12.480;2023-09-30T10:06:21;0.85;;;0.73;;
40997;SDS011;26740;45.944;12.480;2023-09-30T10:08:48;1.17;;;0.60;;
40997;SDS011;26740;45.944;12.480;2023-09-30T10:11:19;2.80;;;1.23;;
40997;SDS011;26740;45.944;12.480;2023-09-30T10:13:57;1.95;;;0.95;;
40997;SDS011;26740;45.944;12.480;2023-09-30T10:21:35;2.13;;;0.68;;
40997;SDS011;26740;45.944;12.480;2023-09-30T10:26:44;1.63;;;1.10;;
40997;SDS011;26740;45.944;12.480;2023-09-30T10:29:10;3.97;;;0.93;;
40997;SDS011;26740;45.944;12.480;2023-09-30T10:31:39;1.58;;;0.68;;
40997;SDS011;26740;45.944;12.480;2023-09-30T10:34:17;1.20;;;0.57;;
40997;SDS011;26740;45.944;12.480;2023-09-30T10:36:43;1.33;;;0.70;;
40997;SDS011;26740;45.944;12.480;2023-09-30T10:39:13;0.90;;;0.43;;
40997;SDS011;26740;45.944;12.480;2023-09-30T10:46:59;3.05;;;0.77;;
40997;SDS011;26740;45.944;12.480;2023-09-30T10:51:51;1.13;;;0.68;;
40997;SDS011;26740;45.944;12.480;2023-09-30T10:54:21;1.42;;;0.88;;
40997;SDS011;26740;45.944;12.480;2023-09-30T10:56:48;1.00;;;0.57;;
40997;SDS011;26740;45.944;12.480;2023-09-30T10:59:21;1.70;;;0.63;;
40997;SDS011;26740;45.944;12.480;2023-09-30T11:01:47;1.08;;;0.70;;
40997;SDS011;26740;45.944;12.480;2023-09-30T11:04:13;6.72;;;0.55;;
40997;SDS011;26740;45.944;12.480;2023-09-30T11:06:41;1.98;;;0.50;;
40997;SDS011;26740;45.944;12.480;2023-09-30T11:09:06;1.67;;;0.68;;
40997;SDS011;26740;45.944;12.480;2023-09-30T11:11:41;1.65;;;0.60;;
40997;SDS011;26740;45.944;12.480;2023-09-30T11:16:42;1.95;;;0.60;;
40997;SDS011;26740;45.944;12.480;2023-09-30T11:19:08;4.00;;;0.70;;
40997;SDS011;26740;45.944;12.480;2023-09-30T11:21:34;2.92;;;0.70;;
40997;SDS011;26740;45.944;12.480;2023-09-30T11:24:00;1.33;;;0.85;;
40997;SDS011;26740;45.944;12.480;2023-09-30T11:26:32;1.30;;;0.68;;
40997;SDS011;26740;45.944;12.480;2023-09-30T11:29:05;1.55;;;0.68;;
40997;SDS011;26740;45.944;12.480;2023-09-30T11:31:30;2.35;;;0.90;;
40997;SDS011;26740;45.944;12.480;2023-09-30T11:33:59;0.95;;;0.52;;
40997;SDS011;26740;45.944;12.480;2023-09-30T11:36:29;2.13;;;1.08;;
40997;SDS011;26740;45.944;12.480;2023-09-30T11:38:55;1.27;;;1.02;;
40997;SDS011;26740;45.944;12.480;2023-09-30T11:41:20;4.00;;;0.80;;
40997;SDS011;26740;45.944;12.480;2023-09-30T11:46:30;0.85;;;0.65;;
40997;SDS011;26740;45.944;12.480;2023-09-30T11:49:00;1.10;;;0.90;;
40997;SDS011;26740;45.944;12.480;2023-09-30T11:51:26;2.20;;;0.60;;
40997;SDS011;26740;45.944;12.480;2023-09-30T11:53:52;1.70;;;0.70;;
40997;SDS011;26740;45.944;12.480;2023-09-30T11:56:18;1.02;;;0.38;;
40997;SDS011;26740;45.944;12.480;2023-09-30T11:58:44;1.70;;;0.93;;
40997;SDS011;26740;45.944;12.480;2023-09-30T12:01:11;1.75;;;0.90;;
40997;SDS011;26740;45.944;12.480;2023-09-30T12:03:39;0.57;;;0.57;;
40997;SDS011;26740;45.944;12.480;2023-09-30T12:06:05;3.40;;;1.63;;
40997;SDS011;26740;45.944;12.480;2023-09-30T12:08:31;0.90;;;0.55;;
40997;SDS011;26740;45.944;12.480;2023-09-30T12:10:57;1.30;;;0.70;;
40997;SDS011;26740;45.944;12.480;2023-09-30T12:13:25;1.00;;;0.63;;
40997;SDS011;26740;45.944;12.480;2023-09-30T12:15:50;1.50;;;0.70;;
40997;SDS011;26740;45.944;12.480;2023-09-30T12:18:18;1.13;;;0.70;;
40997;SDS011;26740;45.944;12.480;2023-09-30T12:20:49;3.30;;;0.65;;
40997;SDS011;26740;45.944;12.480;2023-09-30T12:23:14;1.52;;;0.60;;
40997;SDS011;26740;45.944;12.480;2023-09-30T12:25:40;1.98;;;0.68;;
40997;SDS011;26740;45.944;12.480;2023-09-30T12:28:05;0.80;;;0.60;;
40997;SDS011;26740;45.944;12.480;2023-09-30T12:30:31;1.02;;;0.52;;
40997;SDS011;26740;45.944;12.480;2023-09-30T12:32:57;2.30;;;0.68;;
40997;SDS011;26740;45.944;12.480;2023-09-30T12:35:22;2.97;;;0.80;;
40997;SDS011;26740;45.944;12.480;2023-09-30T12:37:48;1.30;;;0.80;;
40997;SDS011;26740;45.944;12.480;2023-09-30T12:40:13;3.42;;;0.68;;
40997;SDS011;26740;45.944;12.480;2023-09-30T12:42:42;1.10;;;0.80;;
40997;SDS011;26740;45.944;12.480;2023-09-30T12:45:08;4.45;;;0.70;;
40997;SDS011;26740;45.944;12.480;2023-09-30T12:47:33;1.33;;;0.75;;
40997;SDS011;26740;45.944;12.480;2023-09-30T12:49:59;1.23;;;0.70;;
40997;SDS011;26740;45.944;12.480;2023-09-30T12:52:24;3.05;;;0.60;;
40997;SDS011;26740;45.944;12.480;2023-09-30T12:54:50;1.35;;;0.60;;
40997;SDS011;26740;45.944;12.480;2023-09-30T12:57:16;2.45;;;0.68;;
40997;SDS011;26740;45.944;12.480;2023-09-30T12:59:43;3.22;;;0.52;;
40997;SDS011;26740;45.944;12.480;2023-09-30T13:02:11;2.63;;;0.50;;
40997;SDS011;26740;45.944;12.480;2023-09-30T13:04:36;0.70;;;0.50;;
40997;SDS011;26740;45.944;12.480;2023-09-30T13:07:07;0.93;;;0.65;;
40997;SDS011;26740;45.944;12.480;2023-09-30T13:09:32;1.15;;;0.73;;
40997;SDS011;26740;45.944;12.480;2023-09-30T13:11:57;0.98;;;0.68;;
40997;SDS011;26740;45.944;12.480;2023-09-30T13:14:25;1.33;;;0.75;;
40997;SDS011;26740;45.944;12.480;2023-09-30T13:16:53;5.70;;;0.80;;
40997;SDS011;26740;45.944;12.480;2023-09-30T13:19:19;3.70;;;0.60;;
40997;SDS011;26740;45.944;12.480;2023-09-30T13:21:46;2.67;;;0.70;;
40997;SDS011;26740;45.944;12.480;2023-09-30T13:24:12;1.73;;;0.70;;
40997;SDS011;26740;45.944;12.480;2023-09-30T13:26:37;0.90;;;0.60;;
40997;SDS011;26740;45.944;12.480;2023-09-30T13:29:03;1.05;;;0.70;;
40997;SDS011;26740;45.944;12.480;2023-09-30T13:31:30;0.60;;;0.60;;
40997;SDS011;26740;45.944;12.480;2023-09-30T13:33:56;4.38;;;0.82;;
40997;SDS011;26740;45.944;12.480;2023-09-30T13:36:21;0.90;;;0.60;;
40997;SDS011;26740;45.944;12.480;2023-09-30T13:38:46;0.90;;;0.50;;
40997;SDS011;26740;45.944;12.480;2023-09-30T13:41:14;4.78;;;0.85;;
40997;SDS011;26740;45.944;12.480;2023-09-30T13:43:41;2.45;;;0.50;;
40997;SDS011;26740;45.944;12.480;2023-09-30T13:46:06;1.58;;;0.63;;
40997;SDS011;26740;45.944;12.480;2023-09-30T13:48:32;1.15;;;0.60;;
40997;SDS011;26740;45.944;12.480;2023-09-30T13:51:05;2.50;;;0.85;;
40997;SDS011;26740;45.944;12.480;2023-09-30T13:53:30;0.90;;;0.57;;
40997;SDS011;26740;45.944;12.480;2023-09-30T13:55:56;1.67;;;0.60;;
40997;SDS011;26740;45.944;12.480;2023-09-30T13:58:21;5.07;;;0.80;;
40997;SDS011;26740;45.944;12.480;2023-09-30T14:00:47;1.50;;;0.55;;
40997;SDS011;26740;45.944;12.480;2023-09-30T14:03:13;1.13;;;0.63;;
40997;SDS011;26740;45.944;12.480;2023-09-30T14:05:38;1.65;;;0.60;;
40997;SDS011;26740;45.944;12.480;2023-09-30T14:08:04;1.35;;;0.60;;
40997;SDS011;26740;45.944;12.480;2023-09-30T14:10:33;1.10;;;0.60;;
40997;SDS011;26740;45.944;12.480;2023-09-30T14:12:58;3.40;;;0.80;;
40997;SDS011;26740;45.944;12.480;2023-09-30T14:15:24;0.90;;;0.40;;
40997;SDS011;26740;45.944;12.480;2023-09-30T14:17:53;5.30;;;1.08;;
40997;SDS011;26740;45.944;12.480;2023-09-30T14:20:20;1.20;;;0.57;;
40997;SDS011;26740;45.944;12.480;2023-09-30T14:22:46;2.90;;;0.80;;
40997;SDS011;26740;45.944;12.480;2023-09-30T14:25:12;1.85;;;0.80;;
40997;SDS011;26740;45.944;12.480;2023-09-30T14:27:38;2.63;;;0.50;;
40997;SDS011;26740;45.944;12.480;2023-09-30T14:30:03;2.38;;;0.65;;
40997;SDS011;26740;45.944;12.480;2023-09-30T14:32:29;1.02;;;0.63;;
40997;SDS011;26740;45.944;12.480;2023-09-30T14:34:55;3.05;;;0.63;;
40997;SDS011;26740;45.944;12.480;2023-09-30T14:37:22;2.08;;;1.00;;
40997;SDS011;26740;45.944;12.480;2023-09-30T14:39:48;1.73;;;0.93;;
40997;SDS011;26740;45.944;12.480;2023-09-30T14:42:13;6.18;;;1.13;;
40997;SDS011;26740;45.944;12.480;2023-09-30T14:44:39;2.10;;;0.80;;
40997;SDS011;26740;45.944;12.480;2023-09-30T14:47:04;2.00;;;0.60;;
40997;SDS011;26740;45.944;12.480;2023-09-30T14:49:33;1.30;;;0.88;;
40997;SDS011;26740;45.944;12.480;2023-09-30T14:51:58;1.83;;;0.88;;
40997;SDS011;26740;45.944;12.480;2023-09-30T14:54:24;0.60;;;0.50;;
40997;SDS011;26740;45.944;12.480;2023-09-30T14:56:49;0.80;;;0.63;;